createdAt,value
2024-02-14T00:01:02.446Z,17.42
2024-02-14T00:03:41.328Z,14.45
2024-02-14T00:06:10.455Z,21.80
2024-02-14T00:08:39.499Z,14.70
2024-02-14T00:11:08.581Z,17.48
2024-02-14T00:13:36.972Z,15.35
2024-02-14T00:16:07.952Z,15.02
2024-02-14T00:18:36.465Z,11.85
2024-02-14T00:21:05.403Z,15.70
2024-02-14T00:23:33.663Z,17.02
2024-02-14T00:26:02.442Z,12.18
2024-02-14T00:28:30.870Z,9.77
2024-02-14T00:31:00.043Z,14.32
2024-02-14T00:33:28.397Z,11.25
2024-02-14T00:35:57.220Z,16.80
2024-02-14T00:38:25.473Z,12.35
2024-02-14T00:40:54.245Z,12.07
2024-02-14T00:43:22.306Z,11.60
2024-02-14T00:45:50.992Z,11.32
2024-02-14T00:48:19.490Z,14.35
2024-02-14T00:50:48.216Z,14.40
2024-02-14T00:53:16.443Z,14.60
2024-02-14T00:55:45.135Z,14.98
2024-02-14T00:58:13.709Z,16.05
2024-02-14T01:00:42.512Z,25.90
2024-02-14T01:03:14.279Z,20.70
2024-02-14T01:05:43.058Z,14.65
2024-02-14T01:08:11.412Z,13.07
2024-02-14T01:10:40.407Z,12.98
2024-02-14T01:13:08.690Z,12.85
2024-02-14T01:15:37.491Z,14.05
2024-02-14T01:18:05.976Z,19.83
2024-02-14T01:20:34.520Z,16.23
2024-02-14T01:23:02.779Z,16.50
2024-02-14T01:25:31.264Z,17.00
2024-02-14T01:28:01.036Z,16.05
2024-02-14T01:30:29.576Z,18.98
2024-02-14T01:32:57.842Z,13.73
2024-02-14T01:35:28.401Z,13.93
2024-02-14T01:37:56.843Z,13.43
2024-02-14T01:40:25.653Z,15.10
2024-02-14T01:42:54.076Z,20.35
2024-02-14T01:45:23.209Z,17.95
2024-02-14T01:47:52.484Z,16.60
2024-02-14T01:50:30.275Z,18.35
2024-02-14T01:53:01.243Z,19.42
2024-02-14T01:55:30.370Z,18.13
2024-02-14T01:57:59.019Z,18.08
2024-02-14T02:00:28.745Z,16.20
2024-02-14T02:02:58.751Z,16.38
2024-02-14T02:05:27.943Z,11.98
2024-02-14T02:07:56.624Z,18.85
2024-02-14T02:10:27.249Z,17.67
2024-02-14T02:13:02.245Z,15.68
2024-02-14T02:15:32.519Z,15.05
2024-02-14T02:18:01.260Z,15.27
2024-02-14T02:20:30.192Z,17.33
2024-02-14T02:22:58.794Z,16.83
2024-02-14T02:25:28.235Z,18.10
2024-02-14T02:27:58.165Z,18.02
2024-02-14T02:30:26.815Z,12.95
2024-02-14T02:32:55.265Z,14.02
2024-02-14T02:35:25.874Z,19.58
2024-02-14T02:37:54.725Z,14.65
2024-02-14T02:40:24.372Z,13.88
2024-02-14T02:42:52.804Z,16.90
2024-02-14T02:45:21.642Z,18.60
2024-02-14T02:47:53.263Z,16.55
2024-02-14T02:50:23.167Z,12.98
2024-02-14T02:52:51.508Z,14.05
2024-02-14T02:55:20.287Z,12.68
2024-02-14T02:57:48.654Z,14.82
2024-02-14T03:00:17.654Z,20.73
2024-02-14T03:02:46.635Z,15.32
2024-02-14T03:05:25.131Z,13.32
2024-02-14T03:07:54.391Z,13.32
2024-02-14T03:10:23.550Z,14.82
2024-02-14T03:12:51.797Z,17.25
2024-02-14T03:15:21.037Z,22.27
2024-02-14T03:17:49.450Z,13.68
2024-02-14T03:20:19.192Z,21.85
2024-02-14T03:22:48.902Z,12.25
2024-02-14T03:25:19.652Z,13.02
2024-02-14T03:27:52.756Z,16.38
2024-02-14T03:30:23.064Z,16.40
2024-02-14T03:32:52.114Z,14.90
2024-02-14T03:35:22.254Z,16.40
2024-02-14T03:37:54.074Z,19.85
2024-02-14T03:40:23.474Z,12.35
2024-02-14T03:42:53.242Z,15.88
2024-02-14T03:45:22.170Z,14.07
2024-02-14T03:47:50.784Z,10.52
2024-02-14T03:50:19.430Z,10.75
2024-02-14T03:52:47.842Z,11.77
2024-02-14T03:55:18.672Z,8.75
2024-02-14T03:57:48.466Z,12.13
2024-02-14T04:00:17.750Z,8.85
2024-02-14T04:02:46.086Z,8.60
2024-02-14T04:05:14.728Z,17.20
2024-02-14T04:07:45.872Z,11.35
2024-02-14T04:10:15.168Z,12.75
2024-02-14T04:12:43.361Z,11.95
2024-02-14T04:15:12.262Z,9.60
2024-02-14T04:17:43.712Z,19.98
2024-02-14T04:20:12.494Z,10.43
2024-02-14T04:22:40.794Z,15.65
2024-02-14T04:25:09.753Z,7.75
2024-02-14T04:27:38.039Z,8.65
2024-02-14T04:30:07.490Z,10.05
2024-02-14T04:32:36.271Z,10.77
2024-02-14T04:35:05.450Z,12.95
2024-02-14T04:37:34.346Z,7.28
2024-02-14T04:40:05.798Z,9.05
2024-02-14T04:42:34.626Z,5.70
2024-02-14T04:45:03.445Z,10.90
2024-02-14T04:47:32.112Z,8.20
2024-02-14T04:50:02.303Z,11.85
2024-02-14T04:52:31.130Z,10.65
2024-02-14T04:54:59.995Z,7.25
2024-02-14T04:57:28.346Z,8.57
2024-02-14T04:59:57.150Z,14.32
2024-02-14T05:02:25.913Z,13.20
2024-02-14T05:04:54.603Z,12.43
2024-02-14T05:07:22.926Z,16.52
2024-02-14T05:09:53.640Z,11.48
2024-02-14T05:12:21.924Z,9.32
2024-02-14T05:14:50.660Z,9.82
2024-02-14T05:17:19.138Z,11.88
2024-02-14T05:19:47.828Z,6.10
2024-02-14T05:22:16.074Z,14.98
2024-02-14T05:24:44.560Z,8.35
2024-02-14T05:27:12.786Z,10.75
2024-02-14T05:29:41.636Z,8.73
2024-02-14T05:32:11.187Z,9.77
2024-02-14T05:34:39.902Z,12.02
2024-02-14T05:37:09.385Z,22.45
2024-02-14T05:39:37.898Z,10.63
2024-02-14T05:42:07.033Z,15.10
2024-02-14T05:44:35.759Z,10.18
2024-02-14T05:47:04.705Z,11.98
2024-02-14T05:49:33.399Z,12.30
2024-02-14T05:52:01.748Z,16.85
2024-02-14T05:54:30.402Z,16.27
2024-02-14T05:56:59.156Z,11.10
2024-02-14T05:59:27.765Z,15.35
2024-02-14T06:01:56.050Z,13.88
2024-02-14T06:04:24.515Z,14.90
2024-02-14T06:06:53.321Z,11.90
2024-02-14T06:09:22.215Z,18.83
2024-02-14T06:11:50.521Z,16.42
2024-02-14T06:14:20.097Z,15.85
2024-02-14T06:16:48.304Z,19.20
2024-02-14T06:19:16.986Z,14.30
2024-02-14T06:21:45.794Z,18.55
2024-02-14T06:24:14.995Z,15.77
2024-02-14T06:26:43.334Z,25.50
2024-02-14T06:29:11.899Z,15.88
2024-02-14T06:31:40.206Z,24.10
2024-02-14T06:34:09.874Z,22.80
2024-02-14T06:36:38.464Z,19.38
2024-02-14T06:39:09.504Z,26.75
2024-02-14T06:41:38.110Z,15.90
2024-02-14T06:44:06.713Z,16.52
2024-02-14T06:46:36.978Z,18.70
2024-02-14T06:49:05.797Z,16.02
2024-02-14T06:51:34.661Z,16.13
2024-02-14T06:54:03.997Z,17.70
2024-02-14T06:56:32.541Z,24.02
2024-02-14T06:59:01.553Z,19.08
2024-02-14T07:01:30.827Z,19.02
2024-02-14T07:04:00.486Z,16.15
2024-02-14T07:06:29.371Z,25.75
2024-02-14T07:08:58.573Z,21.35
2024-02-14T07:11:26.798Z,17.20
2024-02-14T07:13:55.415Z,18.00
2024-02-14T07:16:23.522Z,14.73
2024-02-14T07:18:52.579Z,20.73
2024-02-14T07:21:20.896Z,14.40
2024-02-14T07:23:49.534Z,19.88
2024-02-14T07:26:17.676Z,15.50
2024-02-14T07:28:46.241Z,19.65
2024-02-14T07:31:14.456Z,24.83
2024-02-14T07:33:44.921Z,26.10
2024-02-14T07:36:13.193Z,14.35
2024-02-14T07:38:44.223Z,20.92
2024-02-14T07:41:12.438Z,22.05
2024-02-14T07:43:40.926Z,27.98
2024-02-14T07:46:09.421Z,18.75
2024-02-14T07:48:38.217Z,21.88
2024-02-14T07:51:09.597Z,17.35
2024-02-14T07:53:38.533Z,23.67
2024-02-14T07:56:06.978Z,18.00
2024-02-14T07:58:35.470Z,19.33
2024-02-14T08:01:05.708Z,14.75
2024-02-14T08:03:34.606Z,23.25
2024-02-14T08:06:02.849Z,18.27
2024-02-14T08:08:31.606Z,16.38
2024-02-14T08:10:59.742Z,22.73
2024-02-14T08:13:28.185Z,23.00
2024-02-14T08:15:56.393Z,16.20
2024-02-14T08:18:25.150Z,19.92
2024-02-14T08:20:53.284Z,13.55
2024-02-14T08:23:21.737Z,17.70
2024-02-14T08:25:50.301Z,18.85
2024-02-14T08:28:22.483Z,15.18
2024-02-14T08:30:50.677Z,24.55
2024-02-14T08:33:19.264Z,15.90
2024-02-14T08:35:48.703Z,22.73
2024-02-14T08:38:17.313Z,19.17
2024-02-14T08:40:45.512Z,22.35
2024-02-14T08:43:14.009Z,21.85
2024-02-14T08:45:42.231Z,17.52
2024-02-14T08:48:10.721Z,17.52
2024-02-14T08:50:38.948Z,18.85
2024-02-14T08:53:08.261Z,16.50
2024-02-14T08:55:38.002Z,23.55
2024-02-14T08:58:06.756Z,15.45
2024-02-14T09:00:36.746Z,21.98
2024-02-14T09:03:05.978Z,25.58
2024-02-14T09:05:35.071Z,22.00
2024-02-14T09:08:04.401Z,27.23
2024-02-14T09:10:32.565Z,23.67
2024-02-14T09:13:02.165Z,25.55
2024-02-14T09:15:31.791Z,21.92
2024-02-14T09:18:01.644Z,24.15
2024-02-14T09:20:30.297Z,23.20
2024-02-14T09:22:59.857Z,23.48
2024-02-14T09:25:28.306Z,29.17
2024-02-14T09:27:56.884Z,30.45
2024-02-14T09:30:32.068Z,34.95
2024-02-14T09:33:07.294Z,28.52
2024-02-14T09:35:37.049Z,34.85
2024-02-14T09:38:05.707Z,29.52
2024-02-14T09:40:34.185Z,32.03
2024-02-14T09:43:06.970Z,36.25
2024-02-14T09:45:35.362Z,31.38
2024-02-14T09:48:04.477Z,38.63
2024-02-14T09:50:34.024Z,25.10
2024-02-14T09:53:03.922Z,23.10
2024-02-14T09:55:32.113Z,26.55
2024-02-14T09:58:05.404Z,27.05
2024-02-14T10:00:34.575Z,27.07
2024-02-14T10:03:03.184Z,22.50
2024-02-14T10:05:31.431Z,19.13
2024-02-14T10:08:00.076Z,18.38
2024-02-14T10:10:29.253Z,17.15
2024-02-14T10:12:57.925Z,17.35
2024-02-14T10:15:26.392Z,11.65
2024-02-14T10:17:55.462Z,14.57
2024-02-14T10:20:24.041Z,20.02
2024-02-14T10:22:52.603Z,14.32
2024-02-14T10:25:21.073Z,11.50
2024-02-14T10:27:49.668Z,12.20
2024-02-14T10:30:18.310Z,22.38
2024-02-14T10:32:49.982Z,12.93
2024-02-14T10:35:21.684Z,16.60
2024-02-14T10:37:50.525Z,16.02
2024-02-14T10:40:19.965Z,30.73
2024-02-14T10:42:48.678Z,13.30
2024-02-14T10:45:17.363Z,10.20
2024-02-14T10:47:50.423Z,13.30
2024-02-14T10:50:22.593Z,13.20
2024-02-14T10:52:54.481Z,14.70
2024-02-14T10:55:28.402Z,18.17
2024-02-14T10:57:58.709Z,16.92
2024-02-14T11:00:28.138Z,16.63
2024-02-14T11:02:57.361Z,16.52
2024-02-14T11:05:27.116Z,14.80
2024-02-14T11:07:55.726Z,23.83
2024-02-14T11:10:24.486Z,17.42
2024-02-14T11:12:55.910Z,15.18
2024-02-14T11:15:32.515Z,11.43
2024-02-14T11:18:11.205Z,16.63
2024-02-14T11:20:42.175Z,12.90
2024-02-14T11:23:12.914Z,18.70
2024-02-14T11:25:41.173Z,8.95
2024-02-14T11:28:25.031Z,11.18
2024-02-14T11:30:53.452Z,12.20
2024-02-14T11:33:26.457Z,13.00
2024-02-14T11:35:56.794Z,11.13
2024-02-14T11:38:27.653Z,14.05
2024-02-14T11:40:58.558Z,18.00
2024-02-14T11:43:28.401Z,13.13
2024-02-14T11:45:56.699Z,18.73
2024-02-14T11:48:25.921Z,12.30
2024-02-14T11:50:55.568Z,11.93
2024-02-14T11:53:24.694Z,10.00
2024-02-14T11:55:53.026Z,13.73
2024-02-14T11:58:21.714Z,18.52
2024-02-14T12:00:52.866Z,16.73
2024-02-14T12:03:24.114Z,21.45
2024-02-14T12:05:55.223Z,15.38
2024-02-14T12:08:24.723Z,15.05
2024-02-14T12:10:53.126Z,11.95
2024-02-14T12:13:23.208Z,11.85
2024-02-14T12:15:53.317Z,13.07
2024-02-14T12:18:23.163Z,17.77
2024-02-14T12:20:56.037Z,11.57
2024-02-14T12:26:04.477Z,11.48
2024-02-14T12:28:33.648Z,16.65
2024-02-14T12:31:01.843Z,11.13
2024-02-14T12:33:31.338Z,12.30
2024-02-14T12:35:59.948Z,15.20
2024-02-14T12:38:28.611Z,14.18
2024-02-14T12:40:57.045Z,15.93
2024-02-14T12:43:25.695Z,12.15
2024-02-14T12:45:53.982Z,15.77
2024-02-14T12:48:29.718Z,13.10
2024-02-14T12:50:59.441Z,24.77
2024-02-14T12:53:28.376Z,16.83
2024-02-14T12:55:56.758Z,16.50
2024-02-14T12:58:25.796Z,14.88
2024-02-14T13:00:54.937Z,16.88
2024-02-14T13:03:24.200Z,28.20
2024-02-14T13:05:55.573Z,16.15
2024-02-14T14:43:41.404Z,23.67
2024-02-14T14:46:12.940Z,31.80
2024-02-14T14:48:41.222Z,26.67
2024-02-14T14:51:10.238Z,21.13
2024-02-14T14:53:38.778Z,20.38
2024-02-14T14:56:08.058Z,27.17
2024-02-14T14:58:37.686Z,20.33
2024-02-14T15:01:06.682Z,27.35
2024-02-14T15:03:35.044Z,20.85
2024-02-14T15:06:04.068Z,25.98
2024-02-14T15:08:33.896Z,21.42
2024-02-14T15:11:02.565Z,18.63
2024-02-14T15:13:30.733Z,20.60
2024-02-14T15:16:02.024Z,24.42
2024-02-14T15:18:30.670Z,30.02
2024-02-14T15:20:59.415Z,22.02
2024-02-14T15:23:27.913Z,30.42
2024-02-14T15:26:18.587Z,21.65
2024-02-14T15:28:46.982Z,20.98
2024-02-14T15:31:34.080Z,24.98
2024-02-14T15:34:05.368Z,25.20
2024-02-14T15:36:34.403Z,25.92
2024-02-14T15:39:02.892Z,20.42
2024-02-14T15:41:31.669Z,31.17
2024-02-14T15:43:59.857Z,22.48
2024-02-14T15:46:28.477Z,26.70
2024-02-14T15:48:57.276Z,23.98
2024-02-14T15:51:28.474Z,31.63
2024-02-14T15:53:57.042Z,23.50
2024-02-14T15:56:28.354Z,26.77
2024-02-14T15:58:57.912Z,22.45
2024-02-14T16:01:26.626Z,29.33
2024-02-14T16:03:55.062Z,23.50
2024-02-14T16:06:24.759Z,23.27
2024-02-14T16:08:55.759Z,25.67
2024-02-14T16:11:24.721Z,33.83
2024-02-14T16:13:52.971Z,28.95
2024-02-14T16:16:21.480Z,30.55
2024-02-14T16:18:49.849Z,34.00
2024-02-14T16:21:18.950Z,29.25
2024-02-14T16:23:47.338Z,33.45
2024-02-14T16:26:16.562Z,36.53
2024-02-14T16:28:45.015Z,34.65
2024-02-14T16:31:13.669Z,42.17
2024-02-14T16:33:44.103Z,36.97
2024-02-14T16:36:13.252Z,39.65
2024-02-14T16:38:41.612Z,33.38
2024-02-14T16:41:10.177Z,44.67
2024-02-14T16:43:39.199Z,43.47
2024-02-14T16:46:08.428Z,45.45
2024-02-14T16:48:37.001Z,43.58
2024-02-14T16:51:05.833Z,45.72
2024-02-14T16:53:34.130Z,47.17
2024-02-14T16:56:03.867Z,50.35
2024-02-14T16:58:32.151Z,38.42
2024-02-14T17:01:00.764Z,37.13
2024-02-14T17:03:29.337Z,42.95
2024-02-14T17:05:58.485Z,43.20
2024-02-14T17:08:27.739Z,45.20
2024-02-14T17:10:56.317Z,41.80
2024-02-14T17:13:24.609Z,46.22
2024-02-14T17:15:53.174Z,35.85
2024-02-14T17:18:24.081Z,42.28
2024-02-14T17:20:53.429Z,42.15
2024-02-14T17:23:21.670Z,39.38
2024-02-14T17:25:51.505Z,45.20
2024-02-14T17:28:19.766Z,46.00
2024-02-14T17:30:49.885Z,42.53
2024-02-14T17:33:18.565Z,41.22
2024-02-14T17:35:49.075Z,39.70
2024-02-14T17:38:17.368Z,44.40
2024-02-14T17:40:45.989Z,48.88
2024-02-14T17:43:14.344Z,44.17
2024-02-14T17:45:42.958Z,40.35
2024-02-14T17:48:11.443Z,49.50
2024-02-14T17:50:42.401Z,55.60
2024-02-14T17:53:10.598Z,44.03
2024-02-14T17:55:39.110Z,48.25
2024-02-14T17:58:07.598Z,43.53
2024-02-14T18:00:36.404Z,46.58
2024-02-14T18:03:05.051Z,51.20
2024-02-14T18:05:34.518Z,44.33
2024-02-14T18:08:02.913Z,64.53
2024-02-14T18:10:32.396Z,62.33
2024-02-14T18:13:01.098Z,58.35
2024-02-14T18:15:29.939Z,43.13
2024-02-14T18:17:58.527Z,37.97
2024-02-14T18:20:27.398Z,51.45
2024-02-14T18:22:55.792Z,51.63
2024-02-14T18:25:24.469Z,53.13
2024-02-14T18:27:54.104Z,50.60
2024-02-14T18:30:23.798Z,45.35
2024-02-14T18:32:52.425Z,47.95
2024-02-14T18:35:21.193Z,57.05
2024-02-14T18:37:49.495Z,55.55
2024-02-14T18:40:18.398Z,65.70
2024-02-14T18:42:47.698Z,38.75
2024-02-14T18:45:16.542Z,45.25
2024-02-14T18:47:45.748Z,51.97
2024-02-14T18:50:14.485Z,51.70
2024-02-14T18:52:42.747Z,54.13
2024-02-14T18:55:12.474Z,57.47
2024-02-14T18:57:40.675Z,54.50
2024-02-14T19:00:11.573Z,51.78
2024-02-14T19:02:43.279Z,49.88
2024-02-14T19:05:12.113Z,49.08
2024-02-14T19:07:40.626Z,38.63
2024-02-14T19:10:10.248Z,39.40
2024-02-14T19:12:38.503Z,48.35
2024-02-14T19:15:07.900Z,45.15
2024-02-14T19:17:37.076Z,41.15
2024-02-14T19:20:09.082Z,42.25
2024-02-14T19:22:37.499Z,79.30
2024-02-14T19:25:07.316Z,59.75
2024-02-14T19:27:36.024Z,63.47
2024-02-14T19:30:08.539Z,51.47
2024-02-14T19:32:40.646Z,41.80
2024-02-14T19:35:10.426Z,38.83
2024-02-14T19:37:38.821Z,48.25
2024-02-14T19:40:09.377Z,51.00
2024-02-14T19:42:38.516Z,39.13
2024-02-14T19:45:08.242Z,47.95
2024-02-14T19:47:37.350Z,49.95
2024-02-14T19:50:09.413Z,38.22
2024-02-14T19:52:38.813Z,45.55
2024-02-14T19:55:09.274Z,41.97
2024-02-14T19:57:37.809Z,52.28
2024-02-14T20:00:10.131Z,51.50
2024-02-14T20:02:41.557Z,47.13
2024-02-14T20:05:10.769Z,44.00
2024-02-14T20:07:39.194Z,45.83
2024-02-14T20:10:08.744Z,51.67
2024-02-14T20:12:39.987Z,45.95
2024-02-14T20:15:09.828Z,56.92
2024-02-14T20:17:38.444Z,46.53
2024-02-14T20:20:11.164Z,44.78
2024-02-14T20:22:39.593Z,53.67
2024-02-14T20:25:14.045Z,48.33
2024-02-14T20:27:42.694Z,49.17
2024-02-14T20:30:14.308Z,43.53
2024-02-14T20:32:44.214Z,42.53
2024-02-14T20:35:16.199Z,44.42
2024-02-14T20:37:46.869Z,54.40
2024-02-14T20:40:15.980Z,47.72
2024-02-14T20:42:44.605Z,54.03
2024-02-14T20:45:14.372Z,52.80
2024-02-14T20:47:46.115Z,47.67
2024-02-14T20:50:18.297Z,46.20
2024-02-14T20:52:46.523Z,50.88
2024-02-14T20:55:16.175Z,40.53
2024-02-14T20:57:44.658Z,45.30
2024-02-14T21:00:14.968Z,50.92
2024-02-14T21:02:43.477Z,44.25
2024-02-14T21:05:12.216Z,37.85
2024-02-14T21:07:40.534Z,39.45
2024-02-14T21:10:11.390Z,41.25
2024-02-14T21:12:39.827Z,46.45
2024-02-14T21:15:09.124Z,41.38
2024-02-14T21:17:39.076Z,45.72
2024-02-14T21:20:10.476Z,40.28
2024-02-14T21:22:42.501Z,42.38
2024-02-14T21:25:11.908Z,41.65
2024-02-14T21:27:40.226Z,47.95
2024-02-14T21:30:09.437Z,48.25
2024-02-14T21:32:37.846Z,49.80
2024-02-14T21:35:06.767Z,48.53
2024-02-14T21:37:35.129Z,36.53
2024-02-14T21:40:04.897Z,47.83
2024-02-14T21:42:33.892Z,42.13
2024-02-14T21:45:03.554Z,46.92
2024-02-14T21:47:32.161Z,37.90
2024-02-14T21:50:01.509Z,37.50
2024-02-14T21:52:31.317Z,41.15
2024-02-14T21:55:00.670Z,48.97
2024-02-14T21:57:29.061Z,35.20
2024-02-14T21:59:57.904Z,40.25
2024-02-14T22:02:26.259Z,41.80
2024-02-14T22:04:55.312Z,40.85
2024-02-14T22:07:26.217Z,42.15
2024-02-14T22:09:55.344Z,52.63
2024-02-14T22:12:24.284Z,41.90
2024-02-14T22:14:53.713Z,46.30
2024-02-14T22:17:22.156Z,55.20
2024-02-14T22:19:50.824Z,49.42
2024-02-14T22:22:21.477Z,46.80
2024-02-14T22:24:50.373Z,36.60
2024-02-14T22:27:20.095Z,41.88
2024-02-14T22:29:48.918Z,39.50
2024-02-14T22:32:17.306Z,44.60
2024-02-14T22:34:46.021Z,41.75
2024-02-14T22:37:15.088Z,38.90
2024-02-14T22:39:43.917Z,44.38
2024-02-14T22:42:12.443Z,36.80
2024-02-14T22:44:41.320Z,48.28
2024-02-14T22:47:09.950Z,44.08
2024-02-14T22:49:39.570Z,38.15
2024-02-14T22:52:08.337Z,41.20
2024-02-14T22:54:37.098Z,49.28
2024-02-14T22:57:05.679Z,46.35
2024-02-14T22:59:34.515Z,48.75
2024-02-14T23:02:03.434Z,36.97
2024-02-14T23:04:35.116Z,43.00
2024-02-14T23:07:04.029Z,36.05
2024-02-14T23:09:35.051Z,33.78
2024-02-14T23:12:03.544Z,34.20
2024-02-14T23:14:32.728Z,36.78
2024-02-14T23:17:01.420Z,34.00
2024-02-14T23:19:30.333Z,37.97
2024-02-14T23:21:58.933Z,42.05
2024-02-14T23:24:28.911Z,36.53
2024-02-14T23:26:57.223Z,43.75
2024-02-14T23:29:25.765Z,42.35
2024-02-14T23:31:54.347Z,45.88
2024-02-14T23:34:23.776Z,34.08
2024-02-14T23:36:52.307Z,41.28
2024-02-14T23:39:24.299Z,46.17
2024-02-14T23:41:52.585Z,37.50
2024-02-14T23:44:21.620Z,38.17
2024-02-14T23:46:49.859Z,45.30
2024-02-14T23:49:18.977Z,44.97
2024-02-14T23:51:47.821Z,35.28
2024-02-14T23:54:16.943Z,41.50
2024-02-14T23:56:48.524Z,36.28
2024-02-14T23:59:17.359Z,38.83
